Time;durP1;ratioP1;P1;durP2;ratioP2;P2;SDS_P1;SDS_P2;PMS_P1;PMS_P2;Temp;Humidity;BMP_temperature;BMP_pressure;BME280_temperature;BME280_humidity;BME280_pressure;Samples;Min_cycle;Max_cycle;Signal;HPM_P1;HPM_P2
2023/10/21 00:01:26;;;;;;;2.22;1.67;;;;;;;13.09;100.00;97478.84;5061368;28;20421;-75
2023/10/21 00:03:57;;;;;;;2.78;1.77;;;;;;;13.03;100.00;97463.56;5059751;28;20075;-75
2023/10/21 00:06:24;;;;;;;3.38;1.42;;;;;;;13.12;100.00;97475.06;5064986;28;20049;-75
2023/10/21 00:08:52;;;;;;;2.70;1.65;;;;;;;13.16;100.00;97474.63;5068882;28;20045;-75
2023/10/21 00:11:20;;;;;;;4.13;1.67;;;;;;;13.13;100.00;97456.28;5068241;28;20442;-75
2023/10/21 00:13:47;;;;;;;2.25;1.20;;;;;;;13.17;100.00;97457.69;5059937;28;20765;-75
2023/10/21 00:16:16;;;;;;;1.50;1.40;;;;;;;13.16;100.00;97460.50;5057905;28;20052;-75
2023/10/21 00:18:45;;;;;;;2.67;1.52;;;;;;;13.16;100.00;97456.00;5068722;28;20124;-74
2023/10/21 00:21:14;;;;;;;2.50;1.63;;;;;;;13.20;100.00;97468.00;5066544;28;20135;-72
2023/10/21 00:23:42;;;;;;;2.97;1.90;;;;;;;13.24;100.00;97479.13;5063870;28;20098;-74
2023/10/21 00:26:10;;;;;;;2.42;1.60;;;;;;;13.27;100.00;97476.16;5057840;28;20065;-74
2023/10/21 00:28:39;;;;;;;2.58;1.45;;;;;;;13.24;100.00;97485.25;5044150;28;20045;-73
2023/10/21 00:31:07;;;;;;;3.05;1.73;;;;;;;13.22;100.00;97471.31;5066785;28;20036;-74
2023/10/21 00:33:35;;;;;;;1.85;1.40;;;;;;;13.11;100.00;97452.13;5063845;28;20106;-74
2023/10/21 00:36:04;;;;;;;2.30;1.70;;;;;;;13.16;100.00;97471.97;5061559;28;20040;-73
2023/10/21 00:38:33;;;;;;;1.60;1.25;;;;;;;13.28;100.00;97486.63;5065228;28;20098;-73
2023/10/21 00:41:01;;;;;;;2.13;1.70;;;;;;;13.31;100.00;97478.34;5063984;28;20051;-74
2023/10/21 00:43:33;;;;;;;2.13;1.40;;;;;;;13.39;100.00;97485.50;5065710;28;20067;-74
2023/10/21 00:46:05;;;;;;;2.50;1.38;;;;;;;13.38;100.00;97485.69;5065241;28;20040;-75
2023/10/21 00:48:33;;;;;;;2.75;1.50;;;;;;;13.25;100.00;97476.31;5067380;28;20053;-75
2023/10/21 00:51:01;;;;;;;1.95;1.20;;;;;;;13.35;100.00;97484.16;5040920;28;20044;-72
2023/10/21 00:53:31;;;;;;;3.00;1.38;;;;;;;13.37;100.00;97499.97;5068082;28;20040;-73
2023/10/21 00:56:01;;;;;;;1.57;1.13;;;;;;;13.40;100.00;97494.28;5061882;28;20051;-74
2023/10/21 00:58:31;;;;;;;1.00;0.90;;;;;;;13.40;100.00;97489.81;5065639;28;20048;-74
2023/10/21 01:01:01;;;;;;;2.22;1.40;;;;;;;13.46;100.00;97505.13;5065647;28;20053;-74
2023/10/21 01:03:31;;;;;;;1.60;0.95;;;;;;;13.51;100.00;97502.84;5062165;28;20055;-74
2023/10/21 01:05:59;;;;;;;1.88;0.93;;;;;;;13.44;100.00;97501.81;5055783;28;20072;-75
2023/10/21 01:08:27;;;;;;;1.10;0.80;;;;;;;13.59;100.00;97494.88;5061840;28;20047;-75
2023/10/21 01:10:56;;;;;;;1.50;1.02;;;;;;;13.75;100.00;97498.56;5064305;28;20409;-74
2023/10/21 01:13:25;;;;;;;1.15;0.80;;;;;;;13.77;100.00;97493.94;5068279;28;20044;-74
2023/10/21 01:15:55;;;;;;;0.98;0.70;;;;;;;13.89;100.00;97505.91;5055477;28;20540;-75
2023/10/21 01:18:24;;;;;;;0.70;0.60;;;;;;;14.01;100.00;97504.59;5067595;28;20036;-75
2023/10/21 01:20:53;;;;;;;0.85;0.60;;;;;;;13.99;100.00;97506.63;5061941;28;20173;-74
2023/10/21 01:23:22;;;;;;;2.80;0.60;;;;;;;13.98;100.00;97483.69;5059258;28;20215;-74
2023/10/21 01:25:50;;;;;;;1.63;0.52;;;;;;;14.16;100.00;97497.69;5052480;28;20501;-75
2023/10/21 01:28:18;;;;;;;2.50;0.63;;;;;;;14.13;100.00;97502.50;5058183;28;20049;-75
2023/10/21 01:30:46;;;;;;;0.90;0.52;;;;;;;14.15;100.00;97505.81;5051192;28;20045;-75
2023/10/21 01:33:14;;;;;;;0.50;0.50;;;;;;;14.01;100.00;97488.66;5066888;28;20067;-75
2023/10/21 01:35:43;;;;;;;0.82;0.40;;;;;;;14.10;100.00;97503.66;5058100;28;20051;-74
2023/10/21 01:38:11;;;;;;;3.05;0.50;;;;;;;14.04;100.00;97485.66;5058953;28;20143;-74
2023/10/21 01:40:40;;;;;;;0.70;0.47;;;;;;;14.08;100.00;97500.31;5064677;28;20503;-75
2023/10/21 01:43:08;;;;;;;2.70;0.40;;;;;;;14.01;100.00;97484.16;5064764;28;20033;-76
2023/10/21 01:45:36;;;;;;;0.45;0.43;;;;;;;14.17;100.00;97503.81;5054424;28;20036;-75
2023/10/21 01:48:05;;;;;;;1.48;0.40;;;;;;;14.16;100.00;97518.97;5084427;28;20061;-75
2023/10/21 01:50:33;;;;;;;2.05;0.68;;;;;;;14.11;100.00;97525.75;5040270;28;20045;-74
2023/10/21 01:53:01;;;;;;;0.93;0.30;;;;;;;13.96;100.00;97481.19;5081210;28;20040;-74
2023/10/21 01:55:29;;;;;;;1.20;0.45;;;;;;;14.12;100.00;97514.13;5065416;28;20053;-74
2023/10/21 01:57:59;;;;;;;1.10;0.47;;;;;;;14.21;100.00;97511.31;5086451;28;20044;-73
2023/10/21 02:00:27;;;;;;;1.00;0.28;;;;;;;14.29;100.00;97513.97;5068340;28;20041;-73
2023/10/21 02:02:57;;;;;;;0.30;0.30;;;;;;;14.27;100.00;97513.31;5070809;28;20059;-73
2023/10/21 02:05:26;;;;;;;1.27;0.30;;;;;;;14.30;100.00;97520.16;5050106;28;20410;-73
2023/10/21 02:07:54;;;;;;;0.70;0.40;;;;;;;14.23;100.00;97524.44;5071408;28;20060;-73
2023/10/21 02:10:22;;;;;;;2.13;0.65;;;;;;;14.23;100.00;97535.94;5054251;28;20413;-73
2023/10/21 02:12:50;;;;;;;3.40;0.30;;;;;;;14.20;100.00;97530.91;5070443;28;20408;-75
2023/10/21 02:15:19;;;;;;;0.93;0.30;;;;;;;14.26;100.00;97534.78;5059872;28;20056;-73
2023/10/21 02:17:47;;;;;;;1.10;0.28;;;;;;;14.27;100.00;97544.41;5052211;28;20048;-73
2023/10/21 02:20:15;;;;;;;1.65;0.40;;;;;;;14.24;100.00;97536.75;5065375;28;20110;-72
2023/10/21 02:22:43;;;;;;;0.43;0.20;;;;;;;14.33;100.00;97541.91;5066975;28;20775;-72
2023/10/21 02:25:13;;;;;;;0.70;0.30;;;;;;;14.22;100.00;97550.22;5060232;28;20041;-72
2023/10/21 02:27:43;;;;;;;0.73;0.20;;;;;;;14.21;100.00;97558.38;5054141;28;20068;-72
2023/10/21 02:30:13;;;;;;;0.70;0.20;;;;;;;14.03;100.00;97540.69;5069967;28;20048;-74
2023/10/21 02:32:45;;;;;;;1.10;0.17;;;;;;;14.09;100.00;97570.31;5069455;28;20048;-74
2023/10/21 02:35:13;;;;;;;0.40;0.20;;;;;;;14.15;100.00;97575.00;5040983;28;20053;-73
2023/10/21 02:37:41;;;;;;;1.70;0.30;;;;;;;14.15;100.00;97572.34;5064100;28;20473;-74
2023/10/21 02:40:13;;;;;;;0.22;0.17;;;;;;;14.07;100.00;97573.16;5072468;28;20098;-73
2023/10/21 02:42:41;;;;;;;0.20;0.20;;;;;;;14.16;100.00;97584.66;5076702;28;20044;-73
2023/10/21 02:45:10;;;;;;;0.13;0.10;;;;;;;14.03;100.00;97561.16;5066451;28;20048;-72
2023/10/21 02:47:38;;;;;;;0.20;0.20;;;;;;;14.21;100.00;97593.81;5065556;28;20051;-73
2023/10/21 02:50:08;;;;;;;3.72;0.13;;;;;;;14.10;100.00;97586.13;5064433;28;20048;-73
2023/10/21 02:52:37;;;;;;;1.35;0.20;;;;;;;14.02;100.00;97576.28;5069945;28;20149;-73
2023/10/21 02:55:07;;;;;;;0.47;0.20;;;;;;;14.17;100.00;97611.09;5058038;28;20068;-73
2023/10/21 02:57:35;;;;;;;1.48;0.20;;;;;;;14.14;100.00;97606.13;5069351;28;20085;-73
2023/10/21 03:00:05;;;;;;;0.13;0.13;;;;;;;14.10;100.00;97625.22;5065862;28;20508;-73
2023/10/21 03:02:33;;;;;;;;;;;;;;;14.07;100.00;97610.41;5042750;28;20056;-73
2023/10/21 03:05:01;;;;;;;0.20;0.10;;;;;;;14.06;100.00;97619.38;5056105;28;19924;-73
2023/10/21 03:07:30;;;;;;;0.15;0.10;;;;;;;14.13;100.00;97648.84;5057796;28;20044;-73
2023/10/21 03:10:00;;;;;;;0.55;0.17;;;;;;;14.04;100.00;97634.66;5058606;28;20079;-73
2023/10/21 03:12:28;;;;;;;0.47;0.20;;;;;;;14.10;100.00;97660.66;5063343;28;20051;-73
2023/10/21 03:14:58;;;;;;;0.30;0.10;;;;;;;14.02;100.00;97657.94;5063009;28;20465;-73
2023/10/21 03:17:25;;;;;;;0.52;0.10;;;;;;;14.00;100.00;97675.91;5074766;28;20102;-73
2023/10/21 03:19:54;;;;;;;1.35;0.10;;;;;;;14.00;100.00;97679.41;5064892;28;20049;-73
2023/10/21 03:22:22;;;;;;;0.22;0.10;;;;;;;14.00;100.00;97689.22;5065938;28;20048;-74
2023/10/21 03:24:51;;;;;;;0.10;0.10;;;;;;;13.99;100.00;97708.84;5064667;28;20554;-74
2023/10/21 03:27:20;;;;;;;0.70;0.20;;;;;;;13.94;100.00;97730.56;5058660;28;20045;-74
2023/10/21 03:29:49;;;;;;;0.25;0.17;;;;;;;14.00;100.00;97723.81;5062105;28;20466;-74
2023/10/21 03:32:17;;;;;;;0.63;0.10;;;;;;;14.01;100.00;97738.75;5062169;28;20484;-74
2023/10/21 03:34:46;;;;;;;0.03;0.00;;;;;;;13.97;100.00;97756.88;5065598;28;20048;-74
2023/10/21 03:37:15;;;;;;;0.10;0.10;;;;;;;13.94;100.00;97759.00;5058821;28;20055;-74
2023/10/21 03:39:43;;;;;;;0.93;0.10;;;;;;;13.89;100.00;97775.44;5066265;28;20049;-73
2023/10/21 03:42:12;;;;;;;0.63;0.10;;;;;;;13.82;100.00;97776.22;5064152;28;20047;-74
2023/10/21 03:44:40;;;;;;;0.10;0.10;;;;;;;13.81;100.00;97817.13;5066611;28;20043;-74
2023/10/21 03:47:08;;;;;;;2.30;0.10;;;;;;;13.75;100.00;97817.72;5035589;28;20062;-74
2023/10/21 03:49:35;;;;;;;0.10;0.10;;;;;;;13.72;100.00;97832.16;5064034;28;20500;-74
2023/10/21 03:52:03;;;;;;;0.10;0.10;;;;;;;13.66;100.00;97825.66;5068730;28;20055;-74
2023/10/21 03:54:31;;;;;;;0.30;0.10;;;;;;;13.67;100.00;97837.13;5065634;28;20485;-75
2023/10/21 03:56:59;;;;;;;0.98;0.15;;;;;;;13.67;100.00;97859.22;5060652;28;20040;-74
2023/10/21 03:59:28;;;;;;;0.15;0.08;;;;;;;13.61;100.00;97867.81;5070667;28;20063;-75
2023/10/21 04:01:57;;;;;;;1.17;0.10;;;;;;;13.58;100.00;97880.56;5070062;28;20048;-74
2023/10/21 04:04:25;;;;;;;0.10;0.10;;;;;;;13.48;100.00;97875.34;5068922;28;20079;-74
2023/10/21 04:06:53;;;;;;;3.92;0.20;;;;;;;13.57;100.00;97879.72;5053782;28;20480;-75
2023/10/21 04:09:20;;;;;;;0.32;0.10;;;;;;;13.66;100.00;97905.44;5064104;28;20044;-74
2023/10/21 04:11:48;;;;;;;2.50;0.20;;;;;;;13.74;100.00;97915.28;5063035;28;20353;-74
2023/10/21 04:14:16;;;;;;;0.40;0.20;;;;;;;13.73;100.00;97920.75;5063833;28;20127;-74
2023/10/21 04:16:45;;;;;;;0.50;0.20;;;;;;;13.76;100.00;97931.94;5055719;28;20040;-74
2023/10/21 04:19:13;;;;;;;2.47;0.30;;;;;;;13.68;100.00;97908.78;5058874;28;20043;-74
2023/10/21 04:21:41;;;;;;;2.10;0.30;;;;;;;13.85;100.00;97935.53;5061378;28;20071;-74
2023/10/21 04:24:09;;;;;;;0.77;0.20;;;;;;;13.71;100.00;97928.88;5064757;28;20067;-74
2023/10/21 04:26:37;;;;;;;0.77;0.30;;;;;;;13.89;100.00;97961.66;5049140;28;20041;-74
2023/10/21 04:29:05;;;;;;;0.30;0.30;;;;;;;13.84;100.00;97961.28;5064902;28;20084;-74
2023/10/21 04:31:34;;;;;;;0.75;0.35;;;;;;;13.80;100.00;97975.03;5064182;28;20029;-74
2023/10/21 04:34:04;;;;;;;1.50;0.40;;;;;;;13.68;100.00;97956.66;5066683;28;20124;-74
2023/10/21 04:36:32;;;;;;;0.85;0.30;;;;;;;13.85;100.00;97984.22;5032891;28;20174;-74
2023/10/21 04:39:00;;;;;;;1.00;0.45;;;;;;;13.82;100.00;97983.72;5045179;28;20042;-74
2023/10/21 04:41:28;;;;;;;0.50;0.32;;;;;;;13.88;100.00;98007.88;5066418;28;20439;-74
2023/10/21 04:43:56;;;;;;;0.80;0.20;;;;;;;13.86;100.00;98001.84;5066317;28;20047;-74
2023/10/21 04:46:24;;;;;;;1.15;0.47;;;;;;;13.87;100.00;98008.00;5039351;28;20049;-74
2023/10/21 04:48:52;;;;;;;1.83;0.28;;;;;;;13.85;100.00;98007.34;5045023;28;20044;-74
2023/10/21 04:51:21;;;;;;;0.52;0.30;;;;;;;13.84;100.00;98011.00;5064136;28;20044;-74
2023/10/21 04:53:49;;;;;;;0.55;0.30;;;;;;;13.82;100.00;98008.47;5063860;28;20367;-74
2023/10/21 04:56:17;;;;;;;0.40;0.20;;;;;;;13.73;100.00;98005.88;5064256;28;20081;-73
2023/10/21 04:58:45;;;;;;;0.57;0.30;;;;;;;13.65;100.00;98019.94;5073474;28;20040;-72
2023/10/21 05:01:16;;;;;;;0.38;0.38;;;;;;;13.61;100.00;98035.34;5070217;28;20094;-71
2023/10/21 05:03:44;;;;;;;0.40;0.30;;;;;;;13.59;100.00;98045.28;5067247;28;20577;-73
2023/10/21 05:06:12;;;;;;;1.15;0.30;;;;;;;13.53;100.00;98045.06;5056338;28;20094;-73
2023/10/21 05:08:41;;;;;;;0.30;0.30;;;;;;;13.56;100.00;98052.72;5060029;28;20051;-74
2023/10/21 05:11:09;;;;;;;0.68;0.30;;;;;;;13.50;100.00;98067.44;5062184;28;20604;-73
2023/10/21 05:13:37;;;;;;;1.23;0.47;;;;;;;13.43;100.00;98066.34;5075729;28;20053;-72
2023/10/21 05:16:06;;;;;;;0.90;0.57;;;;;;;13.39;100.00;98074.75;5053167;28;20037;-73
2023/10/21 05:18:34;;;;;;;0.88;0.50;;;;;;;13.40;100.00;98087.91;5057308;28;20040;-72
2023/10/21 05:21:06;;;;;;;1.95;0.60;;;;;;;13.38;100.00;98091.72;5065553;28;20458;-72
2023/10/21 05:23:34;;;;;;;2.08;0.70;;;;;;;13.41;100.00;98099.38;5049210;28;20549;-72
2023/10/21 05:26:03;;;;;;;0.82;0.60;;;;;;;13.33;100.00;98100.97;5061011;28;20040;-72
2023/10/21 05:28:31;;;;;;;2.08;0.70;;;;;;;13.42;100.00;98117.84;5060184;28;20045;-73
2023/10/21 05:30:59;;;;;;;1.27;0.77;;;;;;;13.42;100.00;98120.50;5065527;28;20064;-75
2023/10/21 05:33:27;;;;;;;1.42;0.80;;;;;;;13.33;100.00;98113.41;5063548;28;20451;-74
2023/10/21 05:35:58;;;;;;;2.13;0.85;;;;;;;13.36;100.00;98130.91;5066885;28;20500;-74
2023/10/21 05:38:26;;;;;;;;;;;;;;;13.39;100.00;98141.22;5059751;28;20066;-75
2023/10/21 05:40:54;;;;;;;0.95;0.90;;;;;;;13.35;100.00;98135.38;5068026;28;20007;-74
2023/10/21 05:43:23;;;;;;;2.40;0.75;;;;;;;13.42;100.00;98149.75;5067031;28;20036;-74
2023/10/21 05:45:50;;;;;;;1.95;0.80;;;;;;;13.48;100.00;98151.84;5067408;28;20037;-74
2023/10/21 05:48:18;;;;;;;2.08;1.00;;;;;;;13.52;100.00;98165.69;5063132;28;20497;-74
2023/10/21 05:50:47;;;;;;;4.10;1.10;;;;;;;13.43;100.00;98162.06;5072207;28;20308;-73
2023/10/21 05:53:14;;;;;;;2.67;1.05;;;;;;;13.55;100.00;98176.00;5064851;28;20119;-73
2023/10/21 05:55:43;;;;;;;1.25;0.95;;;;;;;13.54;100.00;98182.31;5066659;28;20160;-74
2023/10/21 05:58:11;;;;;;;1.55;1.00;;;;;;;13.53;100.00;98183.31;5054748;28;20041;-73
2023/10/21 06:00:41;;;;;;;1.20;1.10;;;;;;;13.54;100.00;98193.78;5068449;28;20028;-75
2023/10/21 06:03:09;;;;;;;0.88;0.80;;;;;;;13.53;100.00;98192.13;5063494;28;20079;-72
2023/10/21 06:05:37;;;;;;;2.55;1.00;;;;;;;13.45;100.00;98205.28;5066577;28;20519;-75
2023/10/21 06:08:07;;;;;;;2.15;1.10;;;;;;;13.34;100.00;98197.50;5039592;28;20061;-73
2023/10/21 06:10:34;;;;;;;3.53;0.93;;;;;;;13.25;100.00;98207.13;5068526;28;20524;-73
2023/10/21 06:13:04;;;;;;;1.98;1.20;;;;;;;13.15;100.00;98214.28;5069750;28;20144;-75
2023/10/21 06:15:33;;;;;;;3.20;1.20;;;;;;;13.03;100.00;98198.63;5064127;28;20037;-73
2023/10/21 06:18:03;;;;;;;2.80;1.00;;;;;;;13.11;100.00;98209.34;5057012;28;20059;-74
2023/10/21 06:20:31;;;;;;;2.88;0.90;;;;;;;13.12;100.00;98208.38;5068685;28;20067;-74
2023/10/21 06:22:59;;;;;;;3.70;1.00;;;;;;;13.25;100.00;98223.09;5083407;28;20499;-75
2023/10/21 06:25:27;;;;;;;2.50;0.70;;;;;;;13.28;100.00;98229.94;5066506;28;20029;-75
2023/10/21 06:27:55;;;;;;;0.60;0.60;;;;;;;13.31;100.00;98235.81;5060577;28;20043;-75
2023/10/21 06:30:26;;;;;;;3.08;0.88;;;;;;;13.33;100.00;98243.66;5070045;28;20048;-74
2023/10/21 06:32:54;;;;;;;1.67;0.60;;;;;;;13.40;100.00;98251.88;5078542;28;20055;-74
2023/10/21 06:35:27;;;;;;;;;;;;;;;13.43;100.00;98244.47;5067610;28;20037;-73
2023/10/21 06:37:55;;;;;;;0.60;0.40;;;;;;;13.48;100.00;98263.50;5060000;28;19920;-74
2023/10/21 06:40:23;;;;;;;1.33;0.47;;;;;;;13.50;100.00;98266.88;5069812;28;20040;-74
2023/10/21 06:43:09;;;;;;;1.10;0.47;;;;;;;13.54;100.00;98262.06;5082865;28;20111;-73
2023/10/21 06:45:38;;;;;;;0.77;0.40;;;;;;;13.60;100.00;98273.00;5069118;28;20037;-74
2023/10/21 06:48:07;;;;;;;0.82;0.52;;;;;;;13.69;100.00;98293.41;5044600;28;20093;-74
2023/10/21 06:50:37;;;;;;;0.43;0.43;;;;;;;13.65;100.00;98288.53;5065716;28;20049;-73
2023/10/21 06:53:05;;;;;;;0.30;0.30;;;;;;;13.83;100.00;98304.59;5040469;28;20061;-74
2023/10/21 06:55:42;;;;;;;0.85;0.50;;;;;;;13.76;100.00;98304.31;5066680;28;20063;-74
2023/10/21 06:58:10;;;;;;;1.55;0.40;;;;;;;13.87;100.00;98316.63;5058622;28;20036;-73
2023/10/21 07:00:39;;;;;;;2.30;0.40;;;;;;;13.96;100.00;98324.59;5070673;28;20049;-73
2023/10/21 07:03:07;;;;;;;0.95;0.40;;;;;;;13.94;100.00;98309.75;5061844;28;20518;-73
2023/10/21 07:05:37;;;;;;;0.60;0.30;;;;;;;13.98;100.00;98329.78;5060711;28;20083;-74
2023/10/21 07:08:06;;;;;;;1.83;0.73;;;;;;;13.86;100.00;98333.56;5055364;28;20566;-73
2023/10/21 07:10:34;;;;;;;0.75;0.40;;;;;;;13.87;100.00;98343.22;5062391;28;20500;-75
2023/10/21 07:13:03;;;;;;;1.27;0.40;;;;;;;14.02;100.00;98358.59;5071317;28;20107;-74
2023/10/21 07:15:31;;;;;;;1.00;0.45;;;;;;;14.00;100.00;98362.41;5053453;28;20040;-73
2023/10/21 07:17:59;;;;;;;1.55;0.50;;;;;;;14.05;100.00;98382.28;5059793;28;20082;-73
2023/10/21 07:20:27;;;;;;;1.88;0.30;;;;;;;13.93;100.00;98374.59;5069387;28;20071;-74
2023/10/21 07:22:57;;;;;;;1.55;0.40;;;;;;;14.04;100.00;98387.72;5065804;28;20083;-73
2023/10/21 07:25:25;;;;;;;1.95;0.40;;;;;;;14.17;100.00;98387.44;5069850;28;20524;-75
2023/10/21 07:27:53;;;;;;;0.57;0.22;;;;;;;14.13;100.00;98375.41;5057222;28;20048;-73
2023/10/21 07:30:23;;;;;;;1.38;0.45;;;;;;;14.47;100.00;98399.75;5066222;28;20518;-75
2023/10/21 07:32:51;;;;;;;2.65;0.50;;;;;;;14.57;100.00;98397.88;5050814;28;20052;-75
2023/10/21 07:35:19;;;;;;;0.95;0.20;;;;;;;14.55;100.00;98403.34;5068826;28;20124;-76
2023/10/21 07:37:47;;;;;;;0.75;0.30;;;;;;;14.63;100.00;98405.28;5041683;28;20580;-74
2023/10/21 07:40:19;;;;;;;0.50;0.30;;;;;;;14.75;100.00;98420.09;5067737;28;20049;-75
2023/10/21 07:42:49;;;;;;;0.32;0.30;;;;;;;14.86;100.00;98427.91;5046135;28;20098;-75
2023/10/21 07:45:18;;;;;;;1.23;0.50;;;;;;;14.86;100.00;98438.56;5067352;28;20511;-75
2023/10/21 07:47:46;;;;;;;1.38;0.30;;;;;;;14.63;100.00;98413.28;5065409;28;20152;-76
2023/10/21 07:50:14;;;;;;;1.30;0.30;;;;;;;14.64;100.00;98441.56;5070916;28;20049;-75
2023/10/21 07:52:43;;;;;;;1.67;0.50;;;;;;;14.66;100.00;98450.25;5082658;28;20040;-75
2023/10/21 07:55:12;;;;;;;3.08;0.50;;;;;;;14.72;100.00;98455.03;5046906;28;20056;-76
2023/10/21 07:57:41;;;;;;;0.73;0.40;;;;;;;14.82;100.00;98446.97;5063901;28;20044;-76
2023/10/21 08:00:13;;;;;;;2.70;0.50;;;;;;;14.72;100.00;98460.34;5066151;28;20033;-74
2023/10/21 08:02:42;;;;;;;1.27;0.32;;;;;;;14.62;100.00;98462.22;5060165;28;20048;-77
2023/10/21 08:05:11;;;;;;;1.13;0.28;;;;;;;14.55;100.00;98471.75;5075198;28;20076;-74
2023/10/21 08:07:39;;;;;;;0.75;0.38;;;;;;;14.47;100.00;98482.28;5064915;28;20057;-75
2023/10/21 08:10:09;;;;;;;1.83;1.35;;;;;;;14.31;100.00;98475.69;5061305;28;20064;-74
2023/10/21 08:12:39;;;;;;;0.68;0.25;;;;;;;14.24;100.00;98493.22;5063749;28;20054;-74
2023/10/21 08:15:10;;;;;;;0.55;0.40;;;;;;;14.15;100.00;98486.09;5080183;28;20048;-74
2023/10/21 08:17:38;;;;;;;0.30;0.30;;;;;;;14.19;100.00;98497.25;5057400;28;20086;-75
2023/10/21 08:20:09;;;;;;;0.80;0.35;;;;;;;14.20;100.00;98496.28;5065894;28;20045;-75
2023/10/21 08:22:38;;;;;;;0.38;0.30;;;;;;;14.08;100.00;98497.41;5067050;28;20143;-74
2023/10/21 08:25:08;;;;;;;0.68;0.20;;;;;;;13.95;100.00;98511.00;5067629;28;20045;-73
2023/10/21 08:27:36;;;;;;;1.10;0.20;;;;;;;13.87;100.00;98522.31;5044281;28;20055;-75
2023/10/21 08:30:10;;;;;;;0.60;0.20;;;;;;;13.76;100.00;98516.28;5056582;28;20501;-73
2023/10/21 08:32:39;;;;;;;1.88;0.30;;;;;;;13.75;100.00;98528.75;5060779;28;20044;-74
2023/10/21 08:35:09;;;;;;;0.93;0.40;;;;;;;13.66;100.00;98533.09;5076405;28;20051;-74
2023/10/21 08:37:37;;;;;;;0.55;0.30;;;;;;;13.55;100.00;98509.25;5068880;28;20064;-73
2023/10/21 08:40:10;;;;;;;1.67;0.30;;;;;;;13.53;100.00;98535.16;5069409;28;20063;-73
2023/10/21 08:42:38;;;;;;;2.65;0.40;;;;;;;13.57;100.00;98538.38;5056761;28;20455;-74
2023/10/21 08:45:30;;;;;;;1.92;0.30;;;;;;;13.79;100.00;98550.59;5081523;28;20417;-73
2023/10/21 08:48:00;;;;;;;1.27;0.30;;;;;;;13.86;100.00;98543.75;5065601;28;20127;-72
2023/10/21 08:50:35;;;;;;;1.30;0.30;;;;;;;13.75;100.00;98539.38;5073368;28;20044;-75
2023/10/21 08:53:06;;;;;;;1.85;0.30;;;;;;;13.69;100.00;98543.44;5076677;28;20048;-74
2023/10/21 08:55:35;;;;;;;2.95;0.57;;;;;;;13.92;100.00;98569.81;5083763;28;20063;-73
2023/10/21 08:58:03;;;;;;;2.25;0.40;;;;;;;14.13;100.00;98581.19;5070990;28;20116;-74
2023/10/21 09:00:34;;;;;;;1.85;0.40;;;;;;;14.28;100.00;98570.97;5065090;28;20045;-74
2023/10/21 09:03:03;;;;;;;0.63;0.30;;;;;;;14.23;100.00;98574.06;5047746;28;20071;-74
2023/10/21 09:05:31;;;;;;;2.13;0.50;;;;;;;14.26;100.00;98573.78;5067348;28;20044;-74
2023/10/21 09:07:59;;;;;;;1.77;0.70;;;;;;;14.22;100.00;98574.19;5061979;28;20486;-74
2023/10/21 09:10:32;;;;;;;1.40;0.60;;;;;;;14.29;100.00;98586.81;5060578;28;20044;-74
2023/10/21 09:13:14;;;;;;;1.17;0.50;;;;;;;14.45;100.00;98599.63;5069413;28;20055;-73
2023/10/21 09:15:43;;;;;;;2.30;0.40;;;;;;;14.44;100.00;98608.56;5071973;28;20036;-74
2023/10/21 09:18:12;;;;;;;2.90;1.35;;;;;;;14.52;100.00;98610.53;5063511;28;20053;-73
2023/10/21 09:20:40;;;;;;;2.10;0.70;;;;;;;14.55;100.00;98612.91;5063378;28;20342;-75
2023/10/21 09:23:08;;;;;;;2.80;0.50;;;;;;;14.43;100.00;98619.38;5075914;28;20967;-73
2023/10/21 09:25:37;;;;;;;0.93;0.40;;;;;;;14.34;100.00;98639.63;5073142;28;20044;-74
2023/10/21 09:28:05;;;;;;;2.25;0.30;;;;;;;14.35;100.00;98626.19;5080089;28;20063;-74
2023/10/21 09:30:33;;;;;;;2.65;0.20;;;;;;;14.41;100.00;98638.16;5060804;28;20037;-75
2023/10/21 09:33:07;;;;;;;2.20;0.52;;;;;;;14.52;100.00;98626.50;5063930;28;20579;-74
2023/10/21 09:35:37;;;;;;;0.98;0.40;;;;;;;14.69;100.00;98645.31;5056271;28;20041;-73
2023/10/21 09:38:16;;;;;;;4.57;0.57;;;;;;;14.55;100.00;98628.91;5059042;28;20436;-73
2023/10/21 09:40:44;;;;;;;2.00;0.47;;;;;;;14.64;100.00;98641.38;5065409;28;20037;-75
2023/10/21 09:43:13;;;;;;;1.85;0.70;;;;;;;14.60;100.00;98648.81;5063771;28;20476;-74
2023/10/21 09:45:44;;;;;;;3.72;0.73;;;;;;;14.48;100.00;98657.91;5070515;28;20427;-75
2023/10/21 09:48:14;;;;;;;2.95;0.60;;;;;;;14.41;100.00;98650.63;5062541;28;20063;-75
2023/10/21 09:50:47;;;;;;;1.38;0.50;;;;;;;14.47;100.00;98652.75;5076177;28;20050;-73
2023/10/21 09:53:17;;;;;;;1.63;0.45;;;;;;;14.55;100.00;98656.38;5051217;28;20040;-73
2023/10/21 09:55:46;;;;;;;3.50;0.60;;;;;;;14.44;100.00;98658.34;5067146;28;20448;-74
2023/10/21 09:58:16;;;;;;;4.00;0.80;;;;;;;14.45;100.00;98660.88;5057291;28;20049;-74
2023/10/21 10:00:44;;;;;;;1.98;0.75;;;;;;;14.47;100.00;98666.06;5065156;28;20497;-74
2023/10/21 10:03:15;;;;;;;2.67;0.77;;;;;;;14.35;100.00;98654.63;5056762;28;20508;-73
2023/10/21 10:05:44;;;;;;;;;;;;;;;14.50;100.00;98668.41;5063975;28;20058;-75
2023/10/21 10:08:16;;;;;;;3.22;0.70;;;;;;;14.41;100.00;98667.44;5059353;28;20051;-73
2023/10/21 10:10:47;;;;;;;1.90;0.50;;;;;;;14.31;100.00;98666.56;5060988;28;20051;-74
2023/10/21 10:13:16;;;;;;;1.30;0.40;;;;;;;14.32;100.00;98668.25;5067678;28;20112;-74
2023/10/21 10:15:44;;;;;;;2.05;0.50;;;;;;;14.17;100.00;98643.81;5066938;28;20060;-74
2023/10/21 10:18:21;;;;;;;1.85;0.52;;;;;;;14.40;100.00;98673.75;5072101;28;20028;-75
2023/10/21 10:20:51;;;;;;;2.70;0.60;;;;;;;14.68;100.00;98659.59;5064292;28;20420;-75
2023/10/21 10:23:20;;;;;;;3.83;0.80;;;;;;;15.18;100.00;98662.09;5066593;28;20056;-75
2023/10/21 10:25:51;;;;;;;3.00;0.68;;;;;;;15.54;100.00;98670.28;5070209;28;20044;-75
2023/10/21 10:28:21;;;;;;;2.45;0.55;;;;;;;15.70;100.00;98676.72;5068947;28;20055;-75
2023/10/21 10:30:50;;;;;;;2.27;0.53;;;;;;;15.71;100.00;98670.41;5065322;28;20068;-75
2023/10/21 10:33:24;;;;;;;2.57;0.80;;;;;;;15.57;100.00;98684.22;5070017;28;20538;-75
2023/10/21 10:35:53;;;;;;;1.95;0.80;;;;;;;15.38;100.00;98671.75;5070687;28;20049;-74
2023/10/21 10:38:25;;;;;;;2.78;0.68;;;;;;;15.32;100.00;98679.47;5068026;28;20075;-75
2023/10/21 10:41:01;;;;;;;3.30;0.63;;;;;;;15.00;100.00;98653.97;5069624;28;20044;-74
2023/10/21 10:43:29;;;;;;;1.63;0.50;;;;;;;14.82;100.00;98682.31;5080131;28;20044;-74
2023/10/21 10:45:58;;;;;;;2.30;0.75;;;;;;;14.59;100.00;98662.28;5082513;28;20494;-76
2023/10/21 10:48:29;;;;;;;3.45;0.80;;;;;;;14.96;100.00;98692.53;5079360;28;20439;-74
2023/10/21 10:50:58;;;;;;;0.50;0.35;;;;;;;15.13;100.00;98679.50;5064089;28;20131;-74
2023/10/21 10:53:27;;;;;;;3.50;1.70;;;;;;;15.25;100.00;98670.38;5068676;28;20091;-74
2023/10/21 10:55:55;;;;;;;4.82;0.82;;;;;;;15.30;100.00;98686.75;5071414;28;20127;-74
2023/10/21 10:58:26;;;;;;;3.53;0.90;;;;;;;15.31;100.00;98678.63;5068571;28;20040;-75
2023/10/21 11:00:56;;;;;;;5.18;0.93;;;;;;;15.13;100.00;98663.50;5059101;28;20040;-74
2023/10/21 11:03:28;;;;;;;1.55;0.50;;;;;;;15.35;100.00;98687.19;5086448;28;20055;-74
2023/10/21 11:05:57;;;;;;;3.20;0.80;;;;;;;15.41;100.00;98681.28;5087173;28;20060;-75
2023/10/21 11:08:27;;;;;;;2.53;0.50;;;;;;;15.49;100.00;98691.22;5069707;28;20063;-76
2023/10/21 11:11:03;;;;;;;4.47;0.63;;;;;;;15.56;100.00;98695.03;5058976;28;20040;-74
2023/10/21 11:13:32;;;;;;;5.10;1.00;;;;;;;15.77;100.00;98683.16;5066210;28;20117;-73
2023/10/21 11:16:05;;;;;;;4.82;1.00;;;;;;;15.94;100.00;98694.03;5064752;28;20493;-74
2023/10/21 11:18:36;;;;;;;3.40;1.23;;;;;;;15.95;100.00;98671.69;5066238;28;20036;-73
2023/10/21 11:21:04;;;;;;;2.83;0.90;;;;;;;16.23;100.00;98699.25;5061063;28;20074;-73
2023/10/21 11:23:33;;;;;;;3.63;0.60;;;;;;;15.92;100.00;98688.84;5065311;28;20564;-72
2023/10/21 11:26:02;;;;;;;2.28;0.60;;;;;;;15.83;100.00;98683.56;5070719;28;20424;-72
2023/10/21 11:28:30;;;;;;;2.00;0.80;;;;;;;15.84;100.00;98691.44;5067023;28;20110;-75
2023/10/21 11:31:01;;;;;;;2.92;0.50;;;;;;;15.51;100.00;98660.75;5043253;28;20040;-73
2023/10/21 11:33:29;;;;;;;;;;;;;;;15.62;100.00;98686.44;5069700;28;20045;-74
2023/10/21 11:35:59;;;;;;;1.80;0.75;;;;;;;15.71;100.00;98690.91;5071938;28;19978;-73